createdAt,value
2023-11-13T00:02:46.034Z,94879.63
2023-11-13T00:07:50.016Z,94884.34
2023-11-13T00:12:53.081Z,94883.88
2023-11-13T00:18:03.554Z,94878.50
2023-11-13T00:23:12.321Z,94870.31
2023-11-13T00:28:15.366Z,94871.69
2023-11-13T00:33:19.583Z,94874.69
2023-11-13T00:38:23.150Z,94873.25
2023-11-13T00:43:26.693Z,94866.44
2023-11-13T00:48:33.772Z,94870.25
2023-11-13T00:53:40.772Z,94877.19
2023-11-13T00:58:47.948Z,94883.00
2023-11-13T01:03:52.217Z,94875.72
2023-11-13T01:08:56.946Z,94874.94
2023-11-13T01:14:00.513Z,94876.53
2023-11-13T01:19:03.438Z,94867.34
2023-11-13T01:24:07.166Z,94870.81
2023-11-13T01:29:10.001Z,94874.28
2023-11-13T01:34:14.476Z,94870.34
2023-11-13T01:39:17.756Z,94869.69
2023-11-13T01:44:26.751Z,94862.41
2023-11-13T01:49:30.252Z,94863.53
2023-11-13T01:54:34.754Z,94861.75
2023-11-13T01:59:40.723Z,94854.03
2023-11-13T02:04:47.158Z,94845.41
2023-11-13T02:09:51.619Z,94845.88
2023-11-13T02:14:55.515Z,94855.16
2023-11-13T02:20:01.593Z,94852.47
2023-11-13T02:25:05.487Z,94850.34
2023-11-13T02:30:08.822Z,94848.13
2023-11-13T02:35:11.668Z,94850.00
2023-11-13T02:40:15.331Z,94843.53
2023-11-13T02:45:18.262Z,94853.50
2023-11-13T02:50:22.479Z,94842.06
2023-11-13T02:55:25.726Z,94838.47
2023-11-13T03:00:28.722Z,94833.09
2023-11-13T03:05:33.106Z,94832.78
2023-11-13T03:10:38.040Z,94832.78
2023-11-13T03:15:41.477Z,94832.00
2023-11-13T03:20:48.663Z,94822.69
2023-11-13T03:25:53.196Z,94829.31
2023-11-13T03:30:59.798Z,94827.72
2023-11-13T03:36:03.159Z,94832.19
2023-11-13T03:41:05.753Z,94832.31
2023-11-13T03:46:08.733Z,94832.66
2023-11-13T03:51:12.212Z,94840.25
2023-11-13T03:56:15.800Z,94843.72
2023-11-13T04:01:20.745Z,94851.69
2023-11-13T04:06:23.538Z,94857.03
2023-11-13T04:11:28.021Z,94854.69
2023-11-13T04:16:33.255Z,94846.19
2023-11-13T04:21:36.344Z,94850.44
2023-11-13T04:26:45.394Z,94853.81
2023-11-13T04:31:50.306Z,94851.75
2023-11-13T04:36:55.111Z,94840.25
2023-11-13T04:42:06.394Z,94847.97
2023-11-13T04:47:14.300Z,94854.13
2023-11-13T04:52:17.431Z,94853.00
2023-11-13T04:57:24.198Z,94855.22
2023-11-13T05:02:27.115Z,94853.88
2023-11-13T05:07:33.895Z,94854.56
2023-11-13T05:12:38.030Z,94851.88
2023-11-13T05:17:42.135Z,94848.28
2023-11-13T05:22:45.585Z,94851.41
2023-11-13T05:27:48.482Z,94851.41
2023-11-13T05:32:51.105Z,94852.97
2023-11-13T05:37:58.041Z,94849.38
2023-11-13T05:43:01.145Z,94852.06
2023-11-13T05:48:04.611Z,94855.66
2023-11-13T05:53:08.308Z,94857.53
2023-11-13T05:58:12.332Z,94865.34
2023-11-13T06:03:20.572Z,94876.41
2023-11-13T06:08:25.180Z,94879.22
2023-11-13T06:13:28.813Z,94893.13
2023-11-13T06:18:34.450Z,94893.31
2023-11-13T06:23:39.088Z,94898.34
2023-11-13T06:28:43.542Z,94902.16
2023-11-13T06:33:47.871Z,94912.88
2023-11-13T06:38:51.672Z,94910.31
2023-11-13T06:43:55.272Z,94915.69
2023-11-13T06:48:58.926Z,94911.00
2023-11-13T06:54:05.420Z,94905.94
2023-11-13T06:59:08.807Z,94919.84
2023-11-13T07:04:14.623Z,94931.31
2023-11-13T07:09:20.431Z,94927.41
2023-11-13T07:14:23.846Z,94932.78
2023-11-13T07:19:26.916Z,94936.69
2023-11-13T07:24:32.595Z,94942.84
2023-11-13T07:29:35.769Z,94951.69
2023-11-13T07:34:38.923Z,94964.16
2023-11-13T07:39:42.446Z,94968.41
2023-11-13T07:44:51.524Z,94971.53
2023-11-13T07:49:59.403Z,94978.81
2023-11-13T07:55:03.353Z,94984.31
2023-11-13T08:00:23.609Z,94984.56
2023-11-13T08:05:27.882Z,94988.03
2023-11-13T08:10:36.800Z,95011.09
2023-11-13T08:15:40.243Z,95005.53
2023-11-13T08:20:45.456Z,95011.50
2023-11-13T08:25:52.369Z,95020.66
2023-11-13T08:31:02.385Z,95026.81
2023-11-13T08:36:13.731Z,95015.84
2023-11-13T08:41:16.696Z,95017.13
2023-11-13T08:46:20.212Z,95026.28
2023-11-13T08:51:29.354Z,95027.66
2023-11-13T08:56:33.015Z,95039.13
2023-11-13T09:01:43.068Z,95033.44
2023-11-13T09:06:46.926Z,95032.22
2023-11-13T09:11:50.140Z,95030.25
2023-11-13T09:16:58.232Z,95027.28
2023-11-13T09:22:06.288Z,95020.03
2023-11-13T09:27:11.414Z,95014.81
2023-11-13T09:32:22.366Z,95026.16
2023-11-13T09:37:28.441Z,95037.34
2023-11-13T09:42:36.642Z,95037.22
2023-11-13T09:47:47.334Z,95045.31
2023-11-13T09:52:53.975Z,95046.22
2023-11-13T09:57:58.131Z,95056.31
2023-11-13T10:03:04.697Z,95056.19
2023-11-13T10:08:10.066Z,95056.50
2023-11-13T10:13:14.825Z,95049.91
2023-11-13T10:18:28.831Z,95055.28
2023-11-13T10:23:39.419Z,95059.88
2023-11-13T10:28:47.510Z,95062.91
2023-11-13T10:34:02.066Z,95062.34
2023-11-13T10:39:19.281Z,95057.00
2023-11-13T10:44:30.387Z,95060.16
2023-11-13T10:49:48.770Z,95056.88
2023-11-13T10:54:55.335Z,95047.53
2023-11-13T11:00:08.034Z,95046.38
2023-11-13T11:05:27.052Z,95038.56
2023-11-13T11:10:34.995Z,95042.00
2023-11-13T11:16:11.544Z,95040.13
2023-11-13T11:21:37.177Z,95042.81
2023-11-13T11:26:54.899Z,95044.97
2023-11-13T11:32:04.144Z,95031.47
2023-11-13T11:37:18.316Z,95036.97
2023-11-13T11:42:30.083Z,95030.56
2023-11-13T11:47:38.090Z,95019.13
2023-11-13T11:52:54.571Z,95003.53
2023-11-13T11:57:59.017Z,94995.66
2023-11-13T12:03:09.859Z,94993.78
2023-11-13T12:08:18.530Z,94989.47
2023-11-13T12:13:28.897Z,94975.13
2023-11-13T12:18:33.876Z,94984.94
2023-11-13T12:23:38.574Z,94970.69
2023-11-13T12:28:43.304Z,94957.28
2023-11-13T12:33:47.051Z,94964.69
2023-11-13T12:38:49.833Z,94958.50
2023-11-13T12:43:55.521Z,94961.56
2023-11-13T12:48:59.952Z,94950.31
2023-11-13T12:54:06.034Z,94951.97
2023-11-13T12:59:10.238Z,94956.91
2023-11-13T13:04:18.494Z,94938.66
2023-11-13T13:09:28.349Z,94938.22
2023-11-13T13:14:32.546Z,94946.91
2023-11-13T13:19:39.819Z,94936.88
2023-11-13T13:24:43.884Z,94948.56
2023-11-13T13:29:50.488Z,94930.88
2023-11-13T13:34:55.366Z,94933.72
2023-11-13T13:39:58.890Z,94930.97
2023-11-13T13:45:05.740Z,94931.66
2023-11-13T13:50:18.809Z,94929.06
2023-11-13T13:55:29.903Z,94927.53
2023-11-13T14:00:37.884Z,94931.19
2023-11-13T14:05:47.869Z,94929.75
2023-11-13T14:10:55.855Z,94927.22
2023-11-13T14:16:07.028Z,94930.72
2023-11-13T14:21:14.926Z,94931.06
2023-11-13T14:26:18.825Z,94926.53
2023-11-13T14:31:23.421Z,94918.09
2023-11-13T14:36:30.487Z,94918.09
2023-11-13T14:41:42.149Z,94918.22
2023-11-13T14:46:48.628Z,94910.28
2023-11-13T14:51:54.039Z,94908.22
2023-11-13T14:56:59.512Z,94906.38
2023-11-13T15:02:02.470Z,94906.38
2023-11-13T15:07:09.586Z,94905.94
2023-11-13T15:12:14.000Z,94901.25
2023-11-13T15:17:22.156Z,94901.31
2023-11-13T15:22:31.489Z,94900.78
2023-11-13T15:27:39.638Z,94901.56
2023-11-13T15:32:47.114Z,94898.09
2023-11-13T15:37:52.185Z,94896.09
2023-11-13T15:43:00.487Z,94906.88
2023-11-13T15:48:06.603Z,94898.28
2023-11-13T15:53:10.560Z,94910.56
2023-11-13T15:58:16.292Z,94913.78
2023-11-13T16:03:22.630Z,94908.22
2023-11-13T16:08:34.724Z,94916.13
2023-11-13T16:13:44.758Z,94911.25
2023-11-13T16:18:50.321Z,94909.00
2023-11-13T16:23:54.280Z,94909.22
2023-11-13T16:28:59.081Z,94917.53
2023-11-13T16:34:05.456Z,94920.94
2023-11-13T16:39:12.471Z,94927.53
2023-11-13T16:44:18.656Z,94933.38
2023-11-13T16:49:25.958Z,94929.44
2023-11-13T16:54:31.304Z,94932.91
2023-11-13T16:59:35.398Z,94940.13
2023-11-13T17:04:39.865Z,94949.59
2023-11-13T17:09:44.201Z,94952.28
2023-11-13T17:14:47.667Z,94963.09
2023-11-13T17:19:52.228Z,94953.13
2023-11-13T17:24:57.960Z,94955.38
2023-11-13T17:30:08.860Z,94966.94
2023-11-13T17:35:14.484Z,94962.66
2023-11-13T17:40:24.188Z,94979.16
2023-11-13T17:45:28.753Z,94983.38
2023-11-13T17:50:33.296Z,94979.88
2023-11-13T17:55:39.745Z,94989.94
2023-11-13T18:00:48.902Z,94992.63
2023-11-13T18:05:55.806Z,94990.63
2023-11-13T18:11:04.633Z,94993.38
2023-11-13T18:16:10.418Z,94990.13
2023-11-13T18:21:14.652Z,94980.56
2023-11-13T18:26:19.797Z,94992.59
2023-11-13T18:31:24.821Z,94999.16
2023-11-13T18:36:36.458Z,94999.88
2023-11-13T18:41:41.421Z,95002.72
2023-11-13T18:46:46.400Z,95024.31
2023-11-13T18:51:49.272Z,95016.63
2023-11-13T18:56:52.175Z,95017.75
2023-11-13T19:01:56.456Z,95030.25
2023-11-13T19:07:00.538Z,95022.88
2023-11-13T19:12:05.860Z,95018.03
2023-11-13T19:17:09.889Z,95029.59
2023-11-13T19:22:12.984Z,95028.34
2023-11-13T19:27:21.321Z,95032.91
2023-11-13T19:32:25.241Z,95027.41
2023-11-13T19:37:28.572Z,95040.25
2023-11-13T19:42:34.887Z,95024.97
2023-11-13T19:47:39.160Z,95032.59
2023-11-13T19:52:47.870Z,95039.88
2023-11-13T19:57:52.689Z,95036.44
2023-11-13T20:03:02.577Z,95033.94
2023-11-13T20:08:10.198Z,95028.09
2023-11-13T20:13:16.619Z,95043.72
2023-11-13T20:18:29.767Z,95038.22
2023-11-13T20:23:41.779Z,95045.97
2023-11-13T20:28:47.508Z,95055.59
2023-11-13T20:33:50.255Z,95051.97
2023-11-13T20:38:54.638Z,95052.91
2023-11-13T20:44:01.500Z,95049.66
2023-11-13T20:49:04.638Z,95046.47
2023-11-13T20:54:08.646Z,95064.13
2023-11-13T20:59:18.551Z,95063.34
2023-11-13T21:04:24.588Z,95061.94
2023-11-13T21:09:32.506Z,95068.44
2023-11-13T21:14:37.290Z,95064.97
2023-11-13T21:19:45.548Z,95072.69
2023-11-13T21:24:53.637Z,95074.59
2023-11-13T21:30:03.943Z,95085.78
2023-11-13T21:35:11.422Z,95090.66
2023-11-13T21:40:16.545Z,95088.94
2023-11-13T21:45:19.891Z,95096.97
2023-11-13T21:50:28.282Z,95097.75
2023-11-13T21:55:38.018Z,95102.63
2023-11-13T22:00:43.896Z,95096.81
2023-11-13T22:05:48.760Z,95107.97
2023-11-13T22:10:54.003Z,95098.06
2023-11-13T22:15:59.601Z,95094.41
2023-11-13T22:21:03.960Z,95096.00
2023-11-13T22:26:09.072Z,95096.50
2023-11-13T22:31:11.918Z,95090.66
2023-11-13T22:36:14.577Z,95084.34
2023-11-13T22:41:20.126Z,95081.22
2023-11-13T22:46:23.240Z,95098.38
2023-11-13T22:51:29.522Z,95103.53
2023-11-13T22:56:32.997Z,95093.44
2023-11-13T23:01:37.142Z,95091.84
2023-11-13T23:06:45.374Z,95091.84
2023-11-13T23:11:54.647Z,95088.53
2023-11-13T23:17:01.504Z,95085.03
2023-11-13T23:22:08.442Z,95083.44
2023-11-13T23:27:12.335Z,95088.00
2023-11-13T23:32:20.315Z,95087.81
2023-11-13T23:37:26.300Z,95088.75
2023-11-13T23:42:32.125Z,95083.03
2023-11-13T23:47:37.898Z,95083.69
2023-11-13T23:52:44.823Z,95086.97
2023-11-13T23:57:47.920Z,95079.72
